sensor_id;sensor_type;location;lat;lon;timestamp;P1;durP1;ratioP1;P2;durP2;ratioP2
12597;SDS011;6364;53.590;9.956;2023-04-03T00:00:55;7.30;;;2.67;;
12597;SDS011;6364;53.590;9.956;2023-04-03T00:03:21;10.68;;;2.80;;
12597;SDS011;6364;53.590;9.956;2023-04-03T00:05:46;5.72;;;2.80;;
12597;SDS011;6364;53.590;9.956;2023-04-03T00:08:12;7.20;;;2.83;;
12597;SDS011;6364;53.590;9.956;2023-04-03T00:10:37;12.88;;;3.38;;
12597;SDS011;6364;53.590;9.956;2023-04-03T00:13:03;13.35;;;3.30;;
12597;SDS011;6364;53.590;9.956;2023-04-03T00:15:30;9.30;;;2.97;;
12597;SDS011;6364;53.590;9.956;2023-04-03T00:17:55;9.63;;;2.70;;
12597;SDS011;6364;53.590;9.956;2023-04-03T00:20:20;10.88;;;3.08;;
12597;SDS011;6364;53.590;9.956;2023-04-03T00:22:46;8.85;;;2.50;;
12597;SDS011;6364;53.590;9.956;2023-04-03T00:25:11;14.75;;;3.28;;
12597;SDS011;6364;53.590;9.956;2023-04-03T00:27:37;5.55;;;2.75;;
12597;SDS011;6364;53.590;9.956;2023-04-03T00:30:04;8.52;;;2.60;;
12597;SDS011;6364;53.590;9.956;2023-04-03T00:32:30;9.35;;;3.03;;
12597;SDS011;6364;53.590;9.956;2023-04-03T00:34:56;8.63;;;2.72;;
12597;SDS011;6364;53.590;9.956;2023-04-03T00:37:21;7.30;;;2.63;;
12597;SDS011;6364;53.590;9.956;2023-04-03T00:39:47;9.18;;;2.92;;
12597;SDS011;6364;53.590;9.956;2023-04-03T00:42:15;10.02;;;2.70;;
12597;SDS011;6364;53.590;9.956;2023-04-03T00:47:06;8.60;;;3.13;;
12597;SDS011;6364;53.590;9.956;2023-04-03T00:49:34;15.00;;;3.38;;
12597;SDS011;6364;53.590;9.956;2023-04-03T00:52:00;6.88;;;2.65;;
12597;SDS011;6364;53.590;9.956;2023-04-03T00:54:26;6.90;;;2.97;;
12597;SDS011;6364;53.590;9.956;2023-04-03T00:56:51;13.90;;;3.33;;
12597;SDS011;6364;53.590;9.956;2023-04-03T00:59:20;11.23;;;3.10;;
12597;SDS011;6364;53.590;9.956;2023-04-03T01:01:50;6.53;;;3.10;;
12597;SDS011;6364;53.590;9.956;2023-04-03T01:09:44;7.53;;;3.25;;
12597;SDS011;6364;53.590;9.956;2023-04-03T01:12:14;11.63;;;3.17;;
12597;SDS011;6364;53.590;9.956;2023-04-03T01:14:50;10.93;;;3.05;;
12597;SDS011;6364;53.590;9.956;2023-04-03T01:17:30;8.43;;;3.17;;
12597;SDS011;6364;53.590;9.956;2023-04-03T01:22:59;16.05;;;3.40;;
12597;SDS011;6364;53.590;9.956;2023-04-03T01:25:46;10.30;;;3.30;;
12597;SDS011;6364;53.590;9.956;2023-04-03T01:28:20;8.32;;;2.90;;
12597;SDS011;6364;53.590;9.956;2023-04-03T01:30:56;7.78;;;3.03;;
12597;SDS011;6364;53.590;9.956;2023-04-03T01:33:35;8.35;;;3.22;;
12597;SDS011;6364;53.590;9.956;2023-04-03T01:36:02;14.52;;;3.15;;
12597;SDS011;6364;53.590;9.956;2023-04-03T01:38:27;9.30;;;3.60;;
12597;SDS011;6364;53.590;9.956;2023-04-03T01:40:53;11.05;;;3.67;;
12597;SDS011;6364;53.590;9.956;2023-04-03T01:43:18;11.55;;;3.65;;
12597;SDS011;6364;53.590;9.956;2023-04-03T01:45:43;12.35;;;3.63;;
12597;SDS011;6364;53.590;9.956;2023-04-03T01:48:09;9.25;;;2.90;;
12597;SDS011;6364;53.590;9.956;2023-04-03T01:50:34;8.70;;;3.10;;
12597;SDS011;6364;53.590;9.956;2023-04-03T01:53:00;10.23;;;3.03;;
12597;SDS011;6364;53.590;9.956;2023-04-03T01:55:25;8.65;;;3.47;;
12597;SDS011;6364;53.590;9.956;2023-04-03T01:57:50;12.40;;;3.72;;
12597;SDS011;6364;53.590;9.956;2023-04-03T02:00:16;12.98;;;3.78;;
12597;SDS011;6364;53.590;9.956;2023-04-03T02:02:41;12.00;;;3.70;;
12597;SDS011;6364;53.590;9.956;2023-04-03T02:05:07;8.23;;;3.22;;
12597;SDS011;6364;53.590;9.956;2023-04-03T02:07:32;11.35;;;3.67;;
12597;SDS011;6364;53.590;9.956;2023-04-03T02:09:57;9.93;;;3.97;;
12597;SDS011;6364;53.590;9.956;2023-04-03T02:12:23;10.20;;;3.05;;
12597;SDS011;6364;53.590;9.956;2023-04-03T02:14:48;6.95;;;3.92;;
12597;SDS011;6364;53.590;9.956;2023-04-03T02:17:13;16.33;;;3.80;;
12597;SDS011;6364;53.590;9.956;2023-04-03T02:19:39;13.00;;;3.70;;
12597;SDS011;6364;53.590;9.956;2023-04-03T02:22:04;9.80;;;3.70;;
12597;SDS011;6364;53.590;9.956;2023-04-03T02:24:30;9.05;;;3.75;;
12597;SDS011;6364;53.590;9.956;2023-04-03T02:26:56;13.85;;;3.40;;
12597;SDS011;6364;53.590;9.956;2023-04-03T02:29:21;10.73;;;4.03;;
12597;SDS011;6364;53.590;9.956;2023-04-03T02:31:47;13.02;;;3.50;;
12597;SDS011;6364;53.590;9.956;2023-04-03T02:34:12;9.93;;;3.28;;
12597;SDS011;6364;53.590;9.956;2023-04-03T02:36:37;9.43;;;3.47;;
12597;SDS011;6364;53.590;9.956;2023-04-03T02:39:03;10.98;;;3.90;;
12597;SDS011;6364;53.590;9.956;2023-04-03T02:41:28;10.45;;;3.50;;
12597;SDS011;6364;53.590;9.956;2023-04-03T02:43:59;12.80;;;3.78;;
12597;SDS011;6364;53.590;9.956;2023-04-03T02:46:25;10.65;;;3.55;;
12597;SDS011;6364;53.590;9.956;2023-04-03T02:48:50;11.13;;;3.90;;
12597;SDS011;6364;53.590;9.956;2023-04-03T02:51:15;9.93;;;3.55;;
12597;SDS011;6364;53.590;9.956;2023-04-03T02:53:41;15.07;;;3.92;;
12597;SDS011;6364;53.590;9.956;2023-04-03T02:56:06;13.82;;;3.58;;
12597;SDS011;6364;53.590;9.956;2023-04-03T02:58:31;10.88;;;4.32;;
12597;SDS011;6364;53.590;9.956;2023-04-03T03:00:57;11.77;;;3.72;;
12597;SDS011;6364;53.590;9.956;2023-04-03T03:03:22;10.98;;;3.55;;
12597;SDS011;6364;53.590;9.956;2023-04-03T03:05:47;7.38;;;3.38;;
12597;SDS011;6364;53.590;9.956;2023-04-03T03:08:13;10.00;;;3.80;;
12597;SDS011;6364;53.590;9.956;2023-04-03T03:10:38;11.10;;;4.00;;
12597;SDS011;6364;53.590;9.956;2023-04-03T03:13:03;14.70;;;4.15;;
12597;SDS011;6364;53.590;9.956;2023-04-03T03:15:29;6.97;;;3.53;;
12597;SDS011;6364;53.590;9.956;2023-04-03T03:17:54;12.93;;;4.03;;
12597;SDS011;6364;53.590;9.956;2023-04-03T03:20:20;13.65;;;3.75;;
12597;SDS011;6364;53.590;9.956;2023-04-03T03:22:45;13.23;;;4.35;;
12597;SDS011;6364;53.590;9.956;2023-04-03T03:25:11;13.35;;;3.95;;
12597;SDS011;6364;53.590;9.956;2023-04-03T03:27:36;13.45;;;4.05;;
12597;SDS011;6364;53.590;9.956;2023-04-03T03:30:02;14.45;;;4.60;;
12597;SDS011;6364;53.590;9.956;2023-04-03T03:32:27;11.88;;;4.00;;
12597;SDS011;6364;53.590;9.956;2023-04-03T03:34:53;13.20;;;3.97;;
12597;SDS011;6364;53.590;9.956;2023-04-03T03:37:18;18.15;;;3.83;;
12597;SDS011;6364;53.590;9.956;2023-04-03T03:39:43;13.20;;;4.07;;
12597;SDS011;6364;53.590;9.956;2023-04-03T03:42:09;14.73;;;4.28;;
12597;SDS011;6364;53.590;9.956;2023-04-03T03:44:34;19.55;;;4.07;;
12597;SDS011;6364;53.590;9.956;2023-04-03T03:46:59;11.20;;;4.20;;
12597;SDS011;6364;53.590;9.956;2023-04-03T03:49:25;9.15;;;4.13;;
12597;SDS011;6364;53.590;9.956;2023-04-03T03:51:50;20.20;;;4.25;;
12597;SDS011;6364;53.590;9.956;2023-04-03T03:54:15;8.00;;;3.67;;
12597;SDS011;6364;53.590;9.956;2023-04-03T03:56:41;12.68;;;3.80;;
12597;SDS011;6364;53.590;9.956;2023-04-03T03:59:06;14.70;;;4.03;;
12597;SDS011;6364;53.590;9.956;2023-04-03T04:01:32;19.30;;;4.80;;
12597;SDS011;6364;53.590;9.956;2023-04-03T04:03:57;14.55;;;4.80;;
12597;SDS011;6364;53.590;9.956;2023-04-03T04:06:22;14.80;;;4.70;;
12597;SDS011;6364;53.590;9.956;2023-04-03T04:08:48;17.50;;;4.35;;
12597;SDS011;6364;53.590;9.956;2023-04-03T04:11:13;12.38;;;4.40;;
12597;SDS011;6364;53.590;9.956;2023-04-03T04:13:39;14.32;;;4.75;;
12597;SDS011;6364;53.590;9.956;2023-04-03T04:16:05;16.73;;;4.88;;
12597;SDS011;6364;53.590;9.956;2023-04-03T04:18:31;15.68;;;5.00;;
12597;SDS011;6364;53.590;9.956;2023-04-03T04:20:56;16.88;;;4.40;;
12597;SDS011;6364;53.590;9.956;2023-04-03T04:23:22;12.73;;;4.47;;
12597;SDS011;6364;53.590;9.956;2023-04-03T04:25:48;13.48;;;4.80;;
12597;SDS011;6364;53.590;9.956;2023-04-03T04:28:14;16.33;;;5.05;;
12597;SDS011;6364;53.590;9.956;2023-04-03T04:30:39;11.48;;;4.80;;
12597;SDS011;6364;53.590;9.956;2023-04-03T04:33:05;11.43;;;5.03;;
12597;SDS011;6364;53.590;9.956;2023-04-03T04:35:31;18.08;;;5.43;;
12597;SDS011;6364;53.590;9.956;2023-04-03T04:37:57;17.15;;;5.63;;
12597;SDS011;6364;53.590;9.956;2023-04-03T04:40:22;17.15;;;5.50;;
12597;SDS011;6364;53.590;9.956;2023-04-03T04:42:47;20.70;;;5.55;;
12597;SDS011;6364;53.590;9.956;2023-04-03T04:45:13;18.05;;;5.13;;
12597;SDS011;6364;53.590;9.956;2023-04-03T04:47:38;21.77;;;5.50;;
12597;SDS011;6364;53.590;9.956;2023-04-03T04:50:03;14.48;;;5.22;;
12597;SDS011;6364;53.590;9.956;2023-04-03T04:52:29;18.27;;;5.25;;
12597;SDS011;6364;53.590;9.956;2023-04-03T04:54:54;15.13;;;5.25;;
12597;SDS011;6364;53.590;9.956;2023-04-03T04:57:20;15.60;;;5.40;;
12597;SDS011;6364;53.590;9.956;2023-04-03T04:59:45;14.63;;;5.40;;
12597;SDS011;6364;53.590;9.956;2023-04-03T05:02:10;16.25;;;5.65;;
12597;SDS011;6364;53.590;9.956;2023-04-03T05:04:36;15.93;;;6.18;;
12597;SDS011;6364;53.590;9.956;2023-04-03T05:07:01;16.55;;;5.78;;
12597;SDS011;6364;53.590;9.956;2023-04-03T05:09:27;11.70;;;5.35;;
12597;SDS011;6364;53.590;9.956;2023-04-03T05:11:52;13.77;;;5.57;;
12597;SDS011;6364;53.590;9.956;2023-04-03T05:14:17;17.38;;;5.75;;
12597;SDS011;6364;53.590;9.956;2023-04-03T05:16:43;15.95;;;4.85;;
12597;SDS011;6364;53.590;9.956;2023-04-03T05:19:08;14.95;;;5.00;;
12597;SDS011;6364;53.590;9.956;2023-04-03T05:21:33;17.33;;;5.15;;
12597;SDS011;6364;53.590;9.956;2023-04-03T05:23:59;11.27;;;5.63;;
12597;SDS011;6364;53.590;9.956;2023-04-03T05:26:27;10.60;;;5.35;;
12597;SDS011;6364;53.590;9.956;2023-04-03T05:28:53;15.48;;;5.10;;
12597;SDS011;6364;53.590;9.956;2023-04-03T05:31:18;12.73;;;5.13;;
12597;SDS011;6364;53.590;9.956;2023-04-03T05:33:43;20.77;;;6.03;;
12597;SDS011;6364;53.590;9.956;2023-04-03T05:36:09;18.15;;;5.57;;
12597;SDS011;6364;53.590;9.956;2023-04-03T05:38:34;10.18;;;4.93;;
12597;SDS011;6364;53.590;9.956;2023-04-03T05:41:00;20.50;;;6.07;;
12597;SDS011;6364;53.590;9.956;2023-04-03T05:43:25;13.23;;;5.18;;
12597;SDS011;6364;53.590;9.956;2023-04-03T05:45:51;18.00;;;5.88;;
12597;SDS011;6364;53.590;9.956;2023-04-03T05:48:16;14.82;;;5.45;;
12597;SDS011;6364;53.590;9.956;2023-04-03T05:50:42;17.58;;;5.32;;
12597;SDS011;6364;53.590;9.956;2023-04-03T05:53:12;17.85;;;5.97;;
12597;SDS011;6364;53.590;9.956;2023-04-03T05:55:42;11.18;;;5.43;;
12597;SDS011;6364;53.590;9.956;2023-04-03T05:58:07;17.30;;;6.05;;
12597;SDS011;6364;53.590;9.956;2023-04-03T06:00:33;24.00;;;6.53;;
12597;SDS011;6364;53.590;9.956;2023-04-03T06:02:58;17.80;;;6.13;;
12597;SDS011;6364;53.590;9.956;2023-04-03T06:05:23;27.35;;;7.50;;
12597;SDS011;6364;53.590;9.956;2023-04-03T06:07:49;18.08;;;6.93;;
12597;SDS011;6364;53.590;9.956;2023-04-03T06:10:14;13.30;;;6.57;;
12597;SDS011;6364;53.590;9.956;2023-04-03T06:12:40;16.48;;;6.95;;
12597;SDS011;6364;53.590;9.956;2023-04-03T06:15:05;16.13;;;6.85;;
12597;SDS011;6364;53.590;9.956;2023-04-03T06:17:33;21.50;;;7.32;;
12597;SDS011;6364;53.590;9.956;2023-04-03T06:19:58;22.35;;;7.22;;
12597;SDS011;6364;53.590;9.956;2023-04-03T06:22:23;16.63;;;7.35;;
12597;SDS011;6364;53.590;9.956;2023-04-03T06:24:50;30.95;;;7.38;;
12597;SDS011;6364;53.590;9.956;2023-04-03T06:27:15;19.42;;;7.20;;
12597;SDS011;6364;53.590;9.956;2023-04-03T06:29:41;18.73;;;7.60;;
12597;SDS011;6364;53.590;9.956;2023-04-03T06:32:07;23.35;;;6.90;;
12597;SDS011;6364;53.590;9.956;2023-04-03T06:34:32;16.35;;;6.72;;
12597;SDS011;6364;53.590;9.956;2023-04-03T06:36:58;20.70;;;7.18;;
12597;SDS011;6364;53.590;9.956;2023-04-03T06:39:23;15.20;;;7.03;;
12597;SDS011;6364;53.590;9.956;2023-04-03T06:41:49;16.70;;;7.10;;
12597;SDS011;6364;53.590;9.956;2023-04-03T06:44:15;13.20;;;5.70;;
12597;SDS011;6364;53.590;9.956;2023-04-03T06:46:41;21.23;;;6.50;;
12597;SDS011;6364;53.590;9.956;2023-04-03T06:49:07;14.20;;;6.30;;
12597;SDS011;6364;53.590;9.956;2023-04-03T06:51:33;16.48;;;6.63;;
12597;SDS011;6364;53.590;9.956;2023-04-03T06:54:00;18.50;;;6.13;;
12597;SDS011;6364;53.590;9.956;2023-04-03T06:56:26;16.77;;;5.70;;
12597;SDS011;6364;53.590;9.956;2023-04-03T06:58:51;15.02;;;5.75;;
12597;SDS011;6364;53.590;9.956;2023-04-03T07:01:19;16.90;;;4.72;;
12597;SDS011;6364;53.590;9.956;2023-04-03T07:03:46;12.27;;;4.80;;
12597;SDS011;6364;53.590;9.956;2023-04-03T07:06:12;10.20;;;4.47;;
12597;SDS011;6364;53.590;9.956;2023-04-03T07:08:39;12.52;;;3.60;;
12597;SDS011;6364;53.590;9.956;2023-04-03T07:11:05;12.77;;;3.00;;
12597;SDS011;6364;53.590;9.956;2023-04-03T07:13:31;8.23;;;3.05;;
12597;SDS011;6364;53.590;9.956;2023-04-03T07:15:56;11.82;;;2.35;;
12597;SDS011;6364;53.590;9.956;2023-04-03T07:18:21;5.03;;;2.38;;
12597;SDS011;6364;53.590;9.956;2023-04-03T07:20:47;10.93;;;2.97;;
12597;SDS011;6364;53.590;9.956;2023-04-03T07:23:12;12.23;;;2.25;;
12597;SDS011;6364;53.590;9.956;2023-04-03T07:25:47;3.03;;;1.65;;
12597;SDS011;6364;53.590;9.956;2023-04-03T07:28:14;9.90;;;2.22;;
12597;SDS011;6364;53.590;9.956;2023-04-03T07:30:47;6.43;;;1.83;;
12597;SDS011;6364;53.590;9.956;2023-04-03T07:33:20;3.60;;;1.65;;
12597;SDS011;6364;53.590;9.956;2023-04-03T07:35:46;4.95;;;1.48;;
12597;SDS011;6364;53.590;9.956;2023-04-03T07:38:12;5.45;;;1.73;;
12597;SDS011;6364;53.590;9.956;2023-04-03T07:40:38;3.42;;;1.10;;
12597;SDS011;6364;53.590;9.956;2023-04-03T07:43:04;4.57;;;1.15;;
12597;SDS011;6364;53.590;9.956;2023-04-03T07:45:30;4.65;;;1.38;;
12597;SDS011;6364;53.590;9.956;2023-04-03T07:47:55;6.05;;;1.35;;
12597;SDS011;6364;53.590;9.956;2023-04-03T07:50:21;2.97;;;1.15;;
12597;SDS011;6364;53.590;9.956;2023-04-03T07:52:47;5.47;;;1.52;;
12597;SDS011;6364;53.590;9.956;2023-04-03T07:55:12;4.80;;;1.55;;
12597;SDS011;6364;53.590;9.956;2023-04-03T07:57:38;7.00;;;2.00;;
12597;SDS011;6364;53.590;9.956;2023-04-03T08:00:03;7.55;;;1.50;;
12597;SDS011;6364;53.590;9.956;2023-04-03T08:02:30;6.15;;;1.60;;
12597;SDS011;6364;53.590;9.956;2023-04-03T08:04:56;3.85;;;1.30;;
12597;SDS011;6364;53.590;9.956;2023-04-03T08:07:22;5.03;;;1.38;;
12597;SDS011;6364;53.590;9.956;2023-04-03T08:09:47;5.57;;;1.10;;
12597;SDS011;6364;53.590;9.956;2023-04-03T08:12:13;2.28;;;1.15;;
12597;SDS011;6364;53.590;9.956;2023-04-03T08:14:39;2.78;;;1.30;;
12597;SDS011;6364;53.590;9.956;2023-04-03T08:17:05;7.05;;;1.40;;
12597;SDS011;6364;53.590;9.956;2023-04-03T08:19:30;4.20;;;1.58;;
12597;SDS011;6364;53.590;9.956;2023-04-03T08:21:56;5.40;;;1.20;;
12597;SDS011;6364;53.590;9.956;2023-04-03T08:24:23;3.05;;;1.25;;
12597;SDS011;6364;53.590;9.956;2023-04-03T08:26:48;2.75;;;1.15;;
12597;SDS011;6364;53.590;9.956;2023-04-03T08:29:14;5.70;;;1.40;;
12597;SDS011;6364;53.590;9.956;2023-04-03T08:31:39;5.97;;;1.42;;
12597;SDS011;6364;53.590;9.956;2023-04-03T08:34:04;6.32;;;1.45;;
12597;SDS011;6364;53.590;9.956;2023-04-03T08:36:30;1.63;;;1.10;;
12597;SDS011;6364;53.590;9.956;2023-04-03T08:38:55;3.58;;;1.15;;
12597;SDS011;6364;53.590;9.956;2023-04-03T08:49:20;5.05;;;1.45;;
12597;SDS011;6364;53.590;9.956;2023-04-03T08:51:50;5.70;;;1.73;;
12597;SDS011;6364;53.590;9.956;2023-04-03T08:54:20;4.40;;;1.25;;
12597;SDS011;6364;53.590;9.956;2023-04-03T08:56:49;4.75;;;1.23;;
12597;SDS011;6364;53.590;9.956;2023-04-03T08:59:17;4.45;;;1.48;;
12597;SDS011;6364;53.590;9.956;2023-04-03T09:01:46;4.15;;;1.20;;
12597;SDS011;6364;53.590;9.956;2023-04-03T09:04:13;3.35;;;1.17;;
12597;SDS011;6364;53.590;9.956;2023-04-03T09:06:39;4.80;;;1.40;;
12597;SDS011;6364;53.590;9.956;2023-04-03T09:11:36;4.53;;;1.45;;
12597;SDS011;6364;53.590;9.956;2023-04-03T09:14:35;6.35;;;1.40;;
12597;SDS011;6364;53.590;9.956;2023-04-03T09:17:10;4.32;;;1.65;;
12597;SDS011;6364;53.590;9.956;2023-04-03T09:19:52;4.50;;;1.50;;
12597;SDS011;6364;53.590;9.956;2023-04-03T09:22:43;4.53;;;1.40;;
12597;SDS011;6364;53.590;9.956;2023-04-03T09:25:17;4.53;;;1.42;;
12597;SDS011;6364;53.590;9.956;2023-04-03T09:27:53;2.75;;;1.30;;
12597;SDS011;6364;53.590;9.956;2023-04-03T09:30:20;4.85;;;1.80;;
12597;SDS011;6364;53.590;9.956;2023-04-03T09:32:47;2.70;;;1.40;;
12597;SDS011;6364;53.590;9.956;2023-04-03T09:37:50;3.37;;;1.30;;
12597;SDS011;6364;53.590;9.956;2023-04-03T09:42:52;2.50;;;0.90;;
12597;SDS011;6364;53.590;9.956;2023-04-03T09:45:22;4.40;;;1.50;;
12597;SDS011;6364;53.590;9.956;2023-04-03T09:48:05;4.32;;;1.20;;
12597;SDS011;6364;53.590;9.956;2023-04-03T09:50:34;4.15;;;1.30;;
12597;SDS011;6364;53.590;9.956;2023-04-03T09:53:11;6.45;;;1.13;;
12597;SDS011;6364;53.590;9.956;2023-04-03T09:55:53;2.97;;;1.00;;
12597;SDS011;6364;53.590;9.956;2023-04-03T09:58:24;2.58;;;1.02;;
12597;SDS011;6364;53.590;9.956;2023-04-03T10:00:55;2.60;;;1.00;;
12597;SDS011;6364;53.590;9.956;2023-04-03T10:03:23;1.38;;;0.95;;
12597;SDS011;6364;53.590;9.956;2023-04-03T10:05:50;2.50;;;0.98;;
12597;SDS011;6364;53.590;9.956;2023-04-03T10:08:23;1.83;;;0.98;;
12597;SDS011;6364;53.590;9.956;2023-04-03T10:16:41;2.97;;;0.73;;
12597;SDS011;6364;53.590;9.956;2023-04-03T10:35:57;1.75;;;1.00;;
12597;SDS011;6364;53.590;9.956;2023-04-03T10:46:17;2.83;;;1.05;;
12597;SDS011;6364;53.590;9.956;2023-04-03T10:49:10;7.10;;;1.30;;
12597;SDS011;6364;53.590;9.956;2023-04-03T10:52:01;2.72;;;1.00;;
12597;SDS011;6364;53.590;9.956;2023-04-03T10:54:36;4.13;;;1.08;;
12597;SDS011;6364;53.590;9.956;2023-04-03T10:57:05;2.45;;;1.20;;
12597;SDS011;6364;53.590;9.956;2023-04-03T10:59:32;2.97;;;1.13;;
12597;SDS011;6364;53.590;9.956;2023-04-03T11:04:59;2.85;;;1.10;;
12597;SDS011;6364;53.590;9.956;2023-04-03T11:07:28;1.85;;;0.93;;
12597;SDS011;6364;53.590;9.956;2023-04-03T11:09:58;4.00;;;1.00;;
12597;SDS011;6364;53.590;9.956;2023-04-03T11:12:35;4.88;;;1.58;;
12597;SDS011;6364;53.590;9.956;2023-04-03T11:15:03;4.05;;;1.25;;
12597;SDS011;6364;53.590;9.956;2023-04-03T11:17:35;3.08;;;1.50;;
12597;SDS011;6364;53.590;9.956;2023-04-03T11:22:43;4.10;;;1.45;;
12597;SDS011;6364;53.590;9.956;2023-04-03T11:30:39;4.38;;;1.52;;
12597;SDS011;6364;53.590;9.956;2023-04-03T11:33:28;4.50;;;1.90;;
12597;SDS011;6364;53.590;9.956;2023-04-03T11:36:06;2.92;;;1.42;;
12597;SDS011;6364;53.590;9.956;2023-04-03T11:38:55;4.35;;;1.30;;
12597;SDS011;6364;53.590;9.956;2023-04-03T11:41:29;3.58;;;1.42;;
12597;SDS011;6364;53.590;9.956;2023-04-03T11:44:00;3.40;;;1.40;;
12597;SDS011;6364;53.590;9.956;2023-04-03T12:13:33;1.60;;;1.00;;
12597;SDS011;6364;53.590;9.956;2023-04-03T12:16:03;3.63;;;1.20;;
12597;SDS011;6364;53.590;9.956;2023-04-03T12:21:18;3.47;;;1.20;;
12597;SDS011;6364;53.590;9.956;2023-04-03T12:26:36;3.55;;;1.70;;
12597;SDS011;6364;53.590;9.956;2023-04-03T12:29:33;4.40;;;2.15;;
12597;SDS011;6364;53.590;9.956;2023-04-03T12:41:18;4.68;;;1.50;;
12597;SDS011;6364;53.590;9.956;2023-04-03T12:44:00;4.68;;;1.75;;
12597;SDS011;6364;53.590;9.956;2023-04-03T12:47:06;2.80;;;1.35;;
12597;SDS011;6364;53.590;9.956;2023-04-03T12:51:54;5.20;;;1.58;;
12597;SDS011;6364;53.590;9.956;2023-04-03T12:54:21;2.92;;;1.45;;
12597;SDS011;6364;53.590;9.956;2023-04-03T12:56:48;4.70;;;1.10;;
12597;SDS011;6364;53.590;9.956;2023-04-03T12:59:25;5.38;;;1.58;;
12597;SDS011;6364;53.590;9.956;2023-04-03T13:01:55;4.57;;;1.48;;
12597;SDS011;6364;53.590;9.956;2023-04-03T13:04:21;2.80;;;1.05;;
12597;SDS011;6364;53.590;9.956;2023-04-03T13:06:46;2.45;;;1.02;;
12597;SDS011;6364;53.590;9.956;2023-04-03T13:09:22;4.30;;;1.58;;
12597;SDS011;6364;53.590;9.956;2023-04-03T13:11:56;4.32;;;1.25;;
12597;SDS011;6364;53.590;9.956;2023-04-03T13:14:24;3.53;;;1.30;;
12597;SDS011;6364;53.590;9.956;2023-04-03T13:17:03;3.33;;;1.00;;
12597;SDS011;6364;53.590;9.956;2023-04-03T13:19:34;4.82;;;1.33;;
12597;SDS011;6364;53.590;9.956;2023-04-03T13:22:08;5.40;;;1.25;;
12597;SDS011;6364;53.590;9.956;2023-04-03T13:24:38;3.03;;;1.35;;
12597;SDS011;6364;53.590;9.956;2023-04-03T13:27:04;3.15;;;1.10;;
12597;SDS011;6364;53.590;9.956;2023-04-03T13:29:32;2.08;;;1.20;;
12597;SDS011;6364;53.590;9.956;2023-04-03T13:32:00;1.88;;;1.05;;
12597;SDS011;6364;53.590;9.956;2023-04-03T13:34:44;4.22;;;1.40;;
12597;SDS011;6364;53.590;9.956;2023-04-03T13:37:20;1.88;;;1.15;;
12597;SDS011;6364;53.590;9.956;2023-04-03T13:39:56;3.03;;;0.93;;
12597;SDS011;6364;53.590;9.956;2023-04-03T13:42:35;1.92;;;1.20;;
12597;SDS011;6364;53.590;9.956;2023-04-03T13:45:09;3.88;;;1.20;;
12597;SDS011;6364;53.590;9.956;2023-04-03T13:52:47;2.53;;;0.93;;
12597;SDS011;6364;53.590;9.956;2023-04-03T14:00:28;3.95;;;1.60;;
12597;SDS011;6364;53.590;9.956;2023-04-03T14:02:57;3.17;;;1.20;;
12597;SDS011;6364;53.590;9.956;2023-04-03T14:05:23;3.65;;;1.40;;
12597;SDS011;6364;53.590;9.956;2023-04-03T14:07:50;2.20;;;1.30;;
12597;SDS011;6364;53.590;9.956;2023-04-03T14:10:15;3.20;;;1.52;;
12597;SDS011;6364;53.590;9.956;2023-04-03T14:12:41;3.17;;;1.25;;
12597;SDS011;6364;53.590;9.956;2023-04-03T14:15:23;2.53;;;1.23;;
12597;SDS011;6364;53.590;9.956;2023-04-03T14:17:50;4.05;;;1.58;;
12597;SDS011;6364;53.590;9.956;2023-04-03T14:20:20;1.65;;;1.00;;
12597;SDS011;6364;53.590;9.956;2023-04-03T14:22:47;3.00;;;1.40;;
12597;SDS011;6364;53.590;9.956;2023-04-03T14:25:14;2.35;;;1.30;;
12597;SDS011;6364;53.590;9.956;2023-04-03T14:27:41;2.35;;;1.15;;
12597;SDS011;6364;53.590;9.956;2023-04-03T14:30:12;3.70;;;1.63;;
12597;SDS011;6364;53.590;9.956;2023-04-03T14:32:40;4.15;;;1.00;;
12597;SDS011;6364;53.590;9.956;2023-04-03T14:35:07;4.07;;;1.50;;
12597;SDS011;6364;53.590;9.956;2023-04-03T14:37:32;3.63;;;1.35;;
12597;SDS011;6364;53.590;9.956;2023-04-03T14:39:59;1.67;;;1.10;;
12597;SDS011;6364;53.590;9.956;2023-04-03T14:42:29;2.42;;;1.25;;
12597;SDS011;6364;53.590;9.956;2023-04-03T14:44:56;2.35;;;1.50;;
12597;SDS011;6364;53.590;9.956;2023-04-03T14:47:24;2.08;;;1.27;;
12597;SDS011;6364;53.590;9.956;2023-04-03T14:49:51;3.00;;;1.48;;
12597;SDS011;6364;53.590;9.956;2023-04-03T14:52:18;3.25;;;1.52;;
12597;SDS011;6364;53.590;9.956;2023-04-03T14:54:46;4.38;;;1.40;;
12597;SDS011;6364;53.590;9.956;2023-04-03T14:57:13;2.60;;;1.10;;
12597;SDS011;6364;53.590;9.956;2023-04-03T14:59:39;3.15;;;1.45;;
12597;SDS011;6364;53.590;9.956;2023-04-03T15:02:25;5.10;;;1.42;;
12597;SDS011;6364;53.590;9.956;2023-04-03T15:04:57;3.15;;;1.30;;
12597;SDS011;6364;53.590;9.956;2023-04-03T15:07:25;5.22;;;1.67;;
12597;SDS011;6364;53.590;9.956;2023-04-03T15:09:52;4.22;;;1.52;;
12597;SDS011;6364;53.590;9.956;2023-04-03T15:12:18;2.95;;;1.27;;
12597;SDS011;6364;53.590;9.956;2023-04-03T15:14:43;3.60;;;1.60;;
12597;SDS011;6364;53.590;9.956;2023-04-03T15:17:12;2.85;;;1.27;;
12597;SDS011;6364;53.590;9.956;2023-04-03T15:19:40;2.88;;;1.23;;
12597;SDS011;6364;53.590;9.956;2023-04-03T15:22:05;4.60;;;1.65;;
12597;SDS011;6364;53.590;9.956;2023-04-03T15:24:30;3.78;;;1.40;;
12597;SDS011;6364;53.590;9.956;2023-04-03T15:26:56;4.18;;;1.20;;
12597;SDS011;6364;53.590;9.956;2023-04-03T15:29:21;5.40;;;2.47;;
12597;SDS011;6364;53.590;9.956;2023-04-03T15:31:46;3.80;;;1.50;;
12597;SDS011;6364;53.590;9.956;2023-04-03T15:34:14;4.35;;;1.40;;
12597;SDS011;6364;53.590;9.956;2023-04-03T15:36:40;4.35;;;1.30;;
12597;SDS011;6364;53.590;9.956;2023-04-03T15:39:06;3.22;;;1.55;;
12597;SDS011;6364;53.590;9.956;2023-04-03T15:41:31;6.88;;;1.90;;
12597;SDS011;6364;53.590;9.956;2023-04-03T15:43:57;7.15;;;1.80;;
12597;SDS011;6364;53.590;9.956;2023-04-03T15:46:22;7.35;;;1.60;;
12597;SDS011;6364;53.590;9.956;2023-04-03T15:48:47;4.28;;;1.70;;
12597;SDS011;6364;53.590;9.956;2023-04-03T15:51:14;4.28;;;1.60;;
12597;SDS011;6364;53.590;9.956;2023-04-03T15:53:39;6.82;;;1.67;;
12597;SDS011;6364;53.590;9.956;2023-04-03T15:56:05;5.95;;;1.55;;
12597;SDS011;6364;53.590;9.956;2023-04-03T15:58:30;3.90;;;1.60;;
12597;SDS011;6364;53.590;9.956;2023-04-03T16:00:56;2.97;;;1.42;;
12597;SDS011;6364;53.590;9.956;2023-04-03T16:03:21;2.67;;;1.20;;
12597;SDS011;6364;53.590;9.956;2023-04-03T16:05:49;6.75;;;1.58;;
12597;SDS011;6364;53.590;9.956;2023-04-03T16:08:14;3.60;;;1.85;;
12597;SDS011;6364;53.590;9.956;2023-04-03T16:10:40;4.22;;;1.40;;
12597;SDS011;6364;53.590;9.956;2023-04-03T16:13:06;4.28;;;1.80;;
12597;SDS011;6364;53.590;9.956;2023-04-03T16:15:31;7.03;;;1.73;;
12597;SDS011;6364;53.590;9.956;2023-04-03T16:17:58;3.03;;;1.42;;
12597;SDS011;6364;53.590;9.956;2023-04-03T16:20:24;5.55;;;1.50;;
12597;SDS011;6364;53.590;9.956;2023-04-03T16:22:50;4.95;;;1.33;;
12597;SDS011;6364;53.590;9.956;2023-04-03T16:25:15;6.05;;;1.50;;
12597;SDS011;6364;53.590;9.956;2023-04-03T16:27:41;5.53;;;1.50;;
12597;SDS011;6364;53.590;9.956;2023-04-03T16:30:06;5.43;;;1.90;;
12597;SDS011;6364;53.590;9.956;2023-04-03T16:32:33;4.65;;;1.73;;
12597;SDS011;6364;53.590;9.956;2023-04-03T16:34:58;5.22;;;1.50;;
12597;SDS011;6364;53.590;9.956;2023-04-03T16:37:24;8.23;;;1.90;;
12597;SDS011;6364;53.590;9.956;2023-04-03T16:39:50;5.07;;;1.73;;
12597;SDS011;6364;53.590;9.956;2023-04-03T16:42:15;5.88;;;1.95;;
12597;SDS011;6364;53.590;9.956;2023-04-03T16:44:40;5.22;;;1.55;;
12597;SDS011;6364;53.590;9.956;2023-04-03T16:47:06;3.45;;;1.60;;
12597;SDS011;6364;53.590;9.956;2023-04-03T16:49:32;4.53;;;1.23;;
12597;SDS011;6364;53.590;9.956;2023-04-03T16:51:59;9.02;;;1.60;;
12597;SDS011;6364;53.590;9.956;2023-04-03T16:54:28;5.45;;;1.98;;
12597;SDS011;6364;53.590;9.956;2023-04-03T16:56:53;6.65;;;1.52;;
12597;SDS011;6364;53.590;9.956;2023-04-03T16:59:19;3.95;;;1.30;;
12597;SDS011;6364;53.590;9.956;2023-04-03T17:01:44;4.03;;;1.63;;